Time;durP1;ratioP1;P1;durP2;ratioP2;P2;SDS_P1;SDS_P2;PMS_P1;PMS_P2;Temp;Humidity;BMP_temperature;BMP_pressure;BME280_temperature;BME280_humidity;BME280_pressure;Samples;Min_cycle;Max_cycle;Signal;HPM_P1;HPM_P2
2021/07/19 00:00:45;;;;;;;8.10;3.20;;;;;;;;;;6246233;23;20375;-67
2021/07/19 00:03:11;;;;;;;11.93;3.30;;;;;;;;;;6247037;23;20075;-67
2021/07/19 00:05:38;;;;;;;6.03;3.00;;;;;;;;;;6246929;23;20422;-66
2021/07/19 00:08:04;;;;;;;5.80;3.03;;;;;;;;;;6246327;23;20070;-66
2021/07/19 00:10:30;;;;;;;5.95;2.95;;;;;;;;;;6246244;23;20004;-66
2021/07/19 00:12:57;;;;;;;7.20;2.75;;;;;;;;;;6246617;23;20004;-66
2021/07/19 00:15:25;;;;;;;5.97;3.17;;;;;;;;;;6246216;23;20016;-66
2021/07/19 00:17:51;;;;;;;8.38;3.13;;;;;;;;;;6219266;23;20479;-66
2021/07/19 00:20:18;;;;;;;6.07;2.70;;;;;;;;;;6246245;23;20087;-66
2021/07/19 00:22:44;;;;;;;6.72;2.65;;;;;;;;;;6246556;23;20075;-65
2021/07/19 00:25:12;;;;;;;9.80;2.60;;;;;;;;;;6219511;23;20094;-65
2021/07/19 00:27:38;;;;;;;9.07;2.78;;;;;;;;;;6219484;23;20421;-66
2021/07/19 00:30:06;;;;;;;11.68;3.22;;;;;;;;;;6246226;23;20011;-66
2021/07/19 00:32:32;;;;;;;6.93;3.00;;;;;;;;;;6219464;23;20028;-66
2021/07/19 00:34:59;;;;;;;4.00;2.22;;;;;;;;;;6245953;23;20421;-66
2021/07/19 00:37:25;;;;;;;5.07;2.80;;;;;;;;;;6246202;23;20001;-63
2021/07/19 00:39:51;;;;;;;9.77;3.05;;;;;;;;;;6219387;23;20008;-66
2021/07/19 00:42:17;;;;;;;6.93;2.65;;;;;;;;;;6246810;23;20050;-65
2021/07/19 00:44:43;;;;;;;6.10;2.85;;;;;;;;;;6219267;23;20012;-66
2021/07/19 00:47:11;;;;;;;7.78;2.97;;;;;;;;;;6219379;23;20000;-64
2021/07/19 00:49:37;;;;;;;4.47;2.42;;;;;;;;;;6219356;23;20426;-68
2021/07/19 00:52:04;;;;;;;9.57;3.00;;;;;;;;;;6246421;23;20015;-65
2021/07/19 00:54:31;;;;;;;6.68;2.58;;;;;;;;;;6246040;23;20008;-67
2021/07/19 00:56:58;;;;;;;7.88;2.85;;;;;;;;;;6246043;23;20392;-66
2021/07/19 00:59:26;;;;;;;7.80;2.55;;;;;;;;;;6246076;23;20000;-67
2021/07/19 01:01:53;;;;;;;4.93;2.40;;;;;;;;;;6246161;23;20406;-66
2021/07/19 01:04:20;;;;;;;6.57;2.85;;;;;;;;;;6219127;23;20341;-65
2021/07/19 01:06:48;;;;;;;8.95;2.20;;;;;;;;;;6248053;23;20369;-66
2021/07/19 01:09:15;;;;;;;6.18;2.80;;;;;;;;;;6221227;23;20000;-66
2021/07/19 01:11:42;;;;;;;5.60;2.63;;;;;;;;;;6221161;23;20019;-66
2021/07/19 01:14:08;;;;;;;4.65;2.40;;;;;;;;;;6247933;23;20058;-66
2021/07/19 01:16:34;;;;;;;5.72;2.53;;;;;;;;;;6248666;23;19996;-66
2021/07/19 01:19:01;;;;;;;8.25;2.72;;;;;;;;;;6247954;23;20012;-66
2021/07/19 01:21:28;;;;;;;5.07;2.00;;;;;;;;;;6247862;23;20424;-69
2021/07/19 01:24:12;;;;;;;4.53;2.53;;;;;;;;;;6248159;23;19997;-67
2021/07/19 01:26:54;;;;;;;8.43;2.38;;;;;;;;;;6221120;23;20079;-68
2021/07/19 01:29:20;;;;;;;7.70;2.20;;;;;;;;;;6221409;23;20046;-64
2021/07/19 01:31:47;;;;;;;6.35;2.30;;;;;;;;;;6247799;23;20007;-65
2021/07/19 01:34:21;;;;;;;4.63;2.20;;;;;;;;;;6220764;23;20472;-67
2021/07/19 01:36:49;;;;;;;6.38;2.40;;;;;;;;;;6220995;23;20017;-65
2021/07/19 01:39:16;;;;;;;5.40;2.05;;;;;;;;;;6220736;23;20031;-66
2021/07/19 01:41:43;;;;;;;6.53;2.20;;;;;;;;;;6220959;23;20007;-70
2021/07/19 01:44:10;;;;;;;4.97;2.50;;;;;;;;;;6220839;23;20083;-64
2021/07/19 01:46:37;;;;;;;5.05;2.30;;;;;;;;;;6220875;23;20088;-66
2021/07/19 01:49:04;;;;;;;3.95;2.20;;;;;;;;;;6220779;23;20024;-66
2021/07/19 01:51:30;;;;;;;5.05;2.22;;;;;;;;;;6248008;23;20032;-65
2021/07/19 01:53:57;;;;;;;3.90;2.00;;;;;;;;;;6220730;23;20023;-66
2021/07/19 01:56:25;;;;;;;5.60;2.20;;;;;;;;;;6220644;23;20008;-66
2021/07/19 01:58:52;;;;;;;4.35;2.13;;;;;;;;;;6247610;23;20007;-67
2021/07/19 02:01:18;;;;;;;4.88;2.65;;;;;;;;;;6248264;23;20079;-67
2021/07/19 02:03:46;;;;;;;8.93;2.13;;;;;;;;;;6247210;23;20023;-67
2021/07/19 02:06:12;;;;;;;4.25;1.80;;;;;;;;;;6247561;23;19996;-65
2021/07/19 02:08:39;;;;;;;5.40;2.00;;;;;;;;;;6247430;23;20000;-67
2021/07/19 02:11:06;;;;;;;6.25;1.67;;;;;;;;;;6248185;23;19996;-66
2021/07/19 02:13:35;;;;;;;6.57;1.83;;;;;;;;;;6248068;23;20381;-68
2021/07/19 02:16:02;;;;;;;4.45;2.15;;;;;;;;;;6247673;23;20008;-68
2021/07/19 02:18:28;;;;;;;4.95;2.20;;;;;;;;;;6247360;23;20083;-66
2021/07/19 02:20:56;;;;;;;7.15;1.92;;;;;;;;;;6220557;23;20004;-66
2021/07/19 02:23:23;;;;;;;4.05;2.20;;;;;;;;;;6220517;23;20087;-67
2021/07/19 02:25:53;;;;;;;4.80;1.80;;;;;;;;;;6247385;23;20054;-66
2021/07/19 02:28:19;;;;;;;3.22;1.67;;;;;;;;;;6221532;23;20043;-66
2021/07/19 02:30:46;;;;;;;4.55;1.95;;;;;;;;;;6220448;23;20000;-66
2021/07/19 02:33:14;;;;;;;7.63;2.25;;;;;;;;;;6247778;23;20004;-67
2021/07/19 02:35:43;;;;;;;9.30;2.40;;;;;;;;;;6214977;23;20020;-65
2021/07/19 02:38:11;;;;;;;2.97;1.77;;;;;;;;;;6215165;23;20012;-66
2021/07/19 02:40:37;;;;;;;7.47;1.88;;;;;;;;;;6216149;23;20055;-66
2021/07/19 02:43:05;;;;;;;5.93;2.42;;;;;;;;;;6215205;23;20005;-67
2021/07/19 02:45:35;;;;;;;7.07;1.90;;;;;;;;;;6216759;23;20005;-67
2021/07/19 02:48:01;;;;;;;6.07;2.10;;;;;;;;;;6215140;23;20091;-65
2021/07/19 02:50:29;;;;;;;10.48;2.10;;;;;;;;;;6216971;23;20009;-66
2021/07/19 02:52:59;;;;;;;4.65;2.17;;;;;;;;;;6216636;23;20032;-65
2021/07/19 02:55:26;;;;;;;3.90;1.67;;;;;;;;;;6217210;23;20074;-67
2021/07/19 02:57:52;;;;;;;4.50;2.05;;;;;;;;;;6217391;23;20000;-68
2021/07/19 03:00:19;;;;;;;8.93;1.77;;;;;;;;;;6216663;23;20065;-67
2021/07/19 03:02:51;;;;;;;3.42;1.85;;;;;;;;;;6216533;23;20031;-65
2021/07/19 03:05:19;;;;;;;4.67;1.60;;;;;;;;;;6215110;23;20008;-67
2021/07/19 03:07:48;;;;;;;2.88;1.60;;;;;;;;;;6215017;23;20007;-67
2021/07/19 03:10:15;;;;;;;4.03;2.10;;;;;;;;;;6215008;23;20342;-67
2021/07/19 03:12:42;;;;;;;4.38;1.63;;;;;;;;;;6215659;23;20004;-65
2021/07/19 03:15:08;;;;;;;4.10;1.98;;;;;;;;;;6214885;23;20094;-66
2021/07/19 03:17:38;;;;;;;3.90;1.60;;;;;;;;;;6216531;23;20001;-65
2021/07/19 03:20:05;;;;;;;4.22;1.65;;;;;;;;;;6215950;23;20009;-66
2021/07/19 03:22:31;;;;;;;3.40;1.58;;;;;;;;;;6217086;23;20334;-63
2021/07/19 03:24:59;;;;;;;4.35;1.65;;;;;;;;;;6214863;23;20083;-65
2021/07/19 03:27:26;;;;;;;3.90;1.52;;;;;;;;;;6214624;23;20009;-69
2021/07/19 03:29:53;;;;;;;3.05;1.50;;;;;;;;;;6216354;23;20008;-66
2021/07/19 03:32:20;;;;;;;2.97;1.50;;;;;;;;;;6214812;23;20510;-64
2021/07/19 03:34:46;;;;;;;4.03;1.75;;;;;;;;;;6214509;23;20052;-66
2021/07/19 03:37:14;;;;;;;4.35;1.40;;;;;;;;;;6214745;23;20047;-69
2021/07/19 03:39:41;;;;;;;4.88;1.63;;;;;;;;;;6214801;23;20342;-67
2021/07/19 03:42:08;;;;;;;7.72;1.40;;;;;;;;;;6214700;23;20004;-65
2021/07/19 03:44:36;;;;;;;3.42;1.50;;;;;;;;;;6214716;23;20014;-68
2021/07/19 03:47:02;;;;;;;4.18;1.85;;;;;;;;;;6216214;23;20005;-64
2021/07/19 03:49:31;;;;;;;5.10;1.67;;;;;;;;;;6214619;23;20040;-67
2021/07/19 03:51:57;;;;;;;3.85;1.40;;;;;;;;;;6214703;23;20005;-66
2021/07/19 03:54:24;;;;;;;12.82;2.10;;;;;;;;;;6216033;23;20071;-67
2021/07/19 03:56:51;;;;;;;5.18;1.67;;;;;;;;;;6216868;23;20311;-66
2021/07/19 03:59:20;;;;;;;4.70;1.15;;;;;;;;;;6216177;23;20001;-64
2021/07/19 04:01:47;;;;;;;6.95;1.52;;;;;;;;;;6214546;23;20005;-66
2021/07/19 04:04:19;;;;;;;4.57;1.55;;;;;;;;;;6216126;23;20000;-66
2021/07/19 04:06:46;;;;;;;4.30;1.60;;;;;;;;;;6216126;23;20011;-67
2021/07/19 04:09:12;;;;;;;4.00;1.42;;;;;;;;;;6216804;23;20047;-63
2021/07/19 04:11:39;;;;;;;2.92;1.63;;;;;;;;;;6214457;23;20418;-66
2021/07/19 04:14:07;;;;;;;8.90;1.60;;;;;;;;;;6214415;23;20013;-67
2021/07/19 04:16:33;;;;;;;7.53;1.50;;;;;;;;;;6216029;23;20430;-65
2021/07/19 04:19:00;;;;;;;4.35;1.10;;;;;;;;;;6214467;23;20018;-66
2021/07/19 04:21:26;;;;;;;4.05;1.65;;;;;;;;;;6215975;23;20080;-65
2021/07/19 04:23:53;;;;;;;4.07;1.55;;;;;;;;;;6214414;23;20001;-67
2021/07/19 04:26:19;;;;;;;3.22;1.35;;;;;;;;;;6215937;23;20005;-65
2021/07/19 04:28:46;;;;;;;2.42;1.35;;;;;;;;;;6215945;23;20032;-66
2021/07/19 04:31:16;;;;;;;3.00;1.35;;;;;;;;;;6215680;23;20001;-63
2021/07/19 04:33:45;;;;;;;4.40;1.45;;;;;;;;;;6213589;23;20012;-64
2021/07/19 04:36:12;;;;;;;4.05;1.40;;;;;;;;;;6240327;23;20016;-66
2021/07/19 04:38:38;;;;;;;5.40;1.48;;;;;;;;;;6246263;23;20368;-69
2021/07/19 04:41:04;;;;;;;5.45;1.20;;;;;;;;;;6195584;23;20092;-65
2021/07/19 04:43:30;;;;;;;2.25;0.88;;;;;;;;;;6196497;23;20386;-65
2021/07/19 04:45:57;;;;;;;2.65;1.25;;;;;;;;;;6248272;23;20010;-67
2021/07/19 04:48:23;;;;;;;2.90;1.33;;;;;;;;;;6248272;23;20022;-65
2021/07/19 04:50:49;;;;;;;2.60;1.25;;;;;;;;;;6248097;23;20004;-71
2021/07/19 04:53:16;;;;;;;2.35;1.00;;;;;;;;;;6248878;23;19996;-64
2021/07/19 04:55:45;;;;;;;7.45;1.58;;;;;;;;;;6247836;23;20503;-63
2021/07/19 04:58:13;;;;;;;3.40;1.15;;;;;;;;;;6247918;23;20453;-65
2021/07/19 05:00:40;;;;;;;3.42;1.25;;;;;;;;;;6247789;23;20370;-67
2021/07/19 05:03:07;;;;;;;4.05;1.23;;;;;;;;;;6248165;23;20008;-67
2021/07/19 05:05:35;;;;;;;3.13;1.17;;;;;;;;;;6221125;23;20008;-64
2021/07/19 05:08:02;;;;;;;6.90;1.30;;;;;;;;;;6220994;23;20004;-65
2021/07/19 05:10:29;;;;;;;3.35;1.08;;;;;;;;;;6221088;23;20090;-72
2021/07/19 05:12:56;;;;;;;2.05;1.10;;;;;;;;;;6221013;23;20000;-72
2021/07/19 05:15:22;;;;;;;3.38;1.30;;;;;;;;;;6220271;23;20012;-71
2021/07/19 05:17:49;;;;;;;5.13;1.10;;;;;;;;;;6221102;23;20004;-67
2021/07/19 05:20:16;;;;;;;3.10;1.00;;;;;;;;;;6221135;23;20030;-66
2021/07/19 05:22:50;;;;;;;4.45;1.30;;;;;;;;;;6220893;23;20299;-67
2021/07/19 05:25:17;;;;;;;6.75;1.40;;;;;;;;;;6247912;23;20079;-68
2021/07/19 05:28:02;;;;;;;5.95;1.10;;;;;;;;;;6248447;23;20419;-68
2021/07/19 05:30:28;;;;;;;4.07;1.10;;;;;;;;;;6248075;23;20000;-68
2021/07/19 05:32:55;;;;;;;6.55;1.58;;;;;;;;;;6220958;23;20008;-71
2021/07/19 05:35:22;;;;;;;2.58;1.00;;;;;;;;;;6247443;23;20016;-68
2021/07/19 05:37:49;;;;;;;3.28;1.10;;;;;;;;;;6247830;23;20001;-68
2021/07/19 05:40:16;;;;;;;3.58;1.25;;;;;;;;;;6248096;23;20384;-66
2021/07/19 05:42:42;;;;;;;3.58;1.38;;;;;;;;;;6248120;23;19996;-68
2021/07/19 05:45:10;;;;;;;2.22;1.08;;;;;;;;;;6220793;23;20437;-68
2021/07/19 05:47:36;;;;;;;3.58;1.00;;;;;;;;;;6248006;23;19996;-67
2021/07/19 05:50:03;;;;;;;1.63;1.00;;;;;;;;;;6220852;23;20050;-70
2021/07/19 05:52:29;;;;;;;7.18;1.40;;;;;;;;;;6220408;23;20079;-67
2021/07/19 05:54:58;;;;;;;2.25;1.05;;;;;;;;;;6220744;23;20019;-70
2021/07/19 05:57:25;;;;;;;2.35;0.98;;;;;;;;;;6220594;23;20024;-67
2021/07/19 05:59:55;;;;;;;5.35;1.10;;;;;;;;;;6247542;23;20004;-66
2021/07/19 06:02:21;;;;;;;2.65;0.98;;;;;;;;;;6247194;23;20084;-66
2021/07/19 06:04:48;;;;;;;5.18;0.93;;;;;;;;;;6219775;23;20015;-68
2021/07/19 06:07:14;;;;;;;4.45;1.05;;;;;;;;;;6247563;23;20083;-69
2021/07/19 06:09:40;;;;;;;2.63;1.10;;;;;;;;;;6247525;23;20001;-67
2021/07/19 06:12:07;;;;;;;3.35;0.95;;;;;;;;;;6248247;23;19996;-66
2021/07/19 06:14:33;;;;;;;2.92;1.27;;;;;;;;;;6220541;23;20012;-68
2021/07/19 06:17:00;;;;;;;3.13;1.23;;;;;;;;;;6220519;23;20083;-70
2021/07/19 06:19:27;;;;;;;2.08;1.00;;;;;;;;;;6247291;23;20000;-67
2021/07/19 06:21:53;;;;;;;4.50;1.13;;;;;;;;;;6247168;23;20032;-67
2021/07/19 06:24:19;;;;;;;2.15;0.93;;;;;;;;;;6247243;23;20056;-66
2021/07/19 06:26:46;;;;;;;2.90;1.20;;;;;;;;;;6220543;23;20330;-68
2021/07/19 06:29:12;;;;;;;2.83;1.08;;;;;;;;;;6247139;23;20008;-67
2021/07/19 06:31:38;;;;;;;3.47;1.25;;;;;;;;;;6247153;23;20000;-66
2021/07/19 06:34:04;;;;;;;2.40;1.00;;;;;;;;;;6247565;23;20058;-67
2021/07/19 06:36:31;;;;;;;2.05;1.10;;;;;;;;;;6243712;23;20031;-67
2021/07/19 06:38:57;;;;;;;2.33;1.08;;;;;;;;;;6247410;23;20001;-67
2021/07/19 06:41:24;;;;;;;7.15;1.00;;;;;;;;;;6247211;23;20298;-70
2021/07/19 06:43:50;;;;;;;2.15;1.00;;;;;;;;;;6247067;23;20437;-68
2021/07/19 06:46:17;;;;;;;2.80;1.42;;;;;;;;;;6245517;23;20051;-69
2021/07/19 06:48:44;;;;;;;5.43;1.48;;;;;;;;;;6247050;23;20433;-67
2021/07/19 06:51:10;;;;;;;5.15;1.38;;;;;;;;;;6245523;23;20000;-67
2021/07/19 06:53:37;;;;;;;2.85;1.10;;;;;;;;;;6245366;23;20433;-67
2021/07/19 06:56:03;;;;;;;4.75;1.10;;;;;;;;;;6247269;23;20008;-66
2021/07/19 06:58:29;;;;;;;3.72;1.40;;;;;;;;;;6247044;23;20303;-66
2021/07/19 07:00:56;;;;;;;5.32;1.20;;;;;;;;;;6246952;23;20011;-66
2021/07/19 07:03:22;;;;;;;4.05;1.25;;;;;;;;;;6246522;23;19996;-68
2021/07/19 07:05:48;;;;;;;3.42;1.08;;;;;;;;;;6246618;23;20000;-66
2021/07/19 07:08:14;;;;;;;3.72;1.02;;;;;;;;;;6245353;23;20008;-67
2021/07/19 07:10:40;;;;;;;2.72;1.10;;;;;;;;;;6246800;23;20023;-66
2021/07/19 07:13:09;;;;;;;2.50;0.98;;;;;;;;;;6246840;23;20000;-67
2021/07/19 07:15:37;;;;;;;6.97;1.13;;;;;;;;;;6245160;23;20468;-67
2021/07/19 07:18:04;;;;;;;2.65;1.05;;;;;;;;;;6245240;23;20079;-67
2021/07/19 07:20:34;;;;;;;3.40;1.02;;;;;;;;;;6247534;23;20000;-69
2021/07/19 07:23:00;;;;;;;3.80;1.05;;;;;;;;;;6246670;23;20011;-67
2021/07/19 07:25:26;;;;;;;2.85;1.00;;;;;;;;;;6245170;23;20007;-67
2021/07/19 07:27:52;;;;;;;7.03;1.38;;;;;;;;;;6246775;23;20422;-70
2021/07/19 07:30:20;;;;;;;4.50;1.20;;;;;;;;;;6246681;23;20000;-67
2021/07/19 07:32:47;;;;;;;2.10;1.20;;;;;;;;;;6245113;23;20015;-67
2021/07/19 07:35:14;;;;;;;3.95;1.20;;;;;;;;;;6244668;23;20016;-66
2021/07/19 07:37:40;;;;;;;8.23;1.50;;;;;;;;;;6244641;23;20070;-66
2021/07/19 07:40:10;;;;;;;2.90;1.30;;;;;;;;;;6244895;23;20004;-66
2021/07/19 07:42:37;;;;;;;4.93;1.20;;;;;;;;;;6244861;23;20005;-67
2021/07/19 07:45:03;;;;;;;4.97;1.33;;;;;;;;;;6246509;23;20047;-66
2021/07/19 07:47:29;;;;;;;3.92;1.30;;;;;;;;;;6244814;23;20098;-66
2021/07/19 07:49:56;;;;;;;8.18;1.65;;;;;;;;;;6246330;23;20004;-66
2021/07/19 07:52:22;;;;;;;3.45;1.33;;;;;;;;;;6244659;23;20445;-67
2021/07/19 07:54:49;;;;;;;2.60;1.20;;;;;;;;;;6246294;23;20307;-68
2021/07/19 07:57:15;;;;;;;13.05;1.95;;;;;;;;;;6246709;23;20061;-67
2021/07/19 07:59:41;;;;;;;2.50;1.13;;;;;;;;;;6246104;23;20028;-68
2021/07/19 08:02:08;;;;;;;2.45;1.30;;;;;;;;;;6246724;23;20028;-67
2021/07/19 08:04:36;;;;;;;3.13;1.23;;;;;;;;;;6246211;23;20130;-68
2021/07/19 08:07:03;;;;;;;2.63;1.40;;;;;;;;;;6246395;23;20011;-67
2021/07/19 08:09:29;;;;;;;2.72;1.42;;;;;;;;;;6246341;23;20322;-67
2021/07/19 08:11:56;;;;;;;5.55;1.50;;;;;;;;;;6246312;23;20441;-67
2021/07/19 08:14:23;;;;;;;2.63;1.15;;;;;;;;;;6246444;23;20036;-67
2021/07/19 08:16:50;;;;;;;2.53;1.30;;;;;;;;;;6244719;23;20051;-67
2021/07/19 08:19:17;;;;;;;7.43;1.25;;;;;;;;;;6246881;23;20000;-68
2021/07/19 08:21:44;;;;;;;5.00;1.60;;;;;;;;;;6246075;23;19992;-68
2021/07/19 08:24:10;;;;;;;4.25;1.25;;;;;;;;;;6246108;23;20011;-68
2021/07/19 08:26:37;;;;;;;4.65;1.40;;;;;;;;;;6244866;23;19996;-68
2021/07/19 08:29:04;;;;;;;3.60;1.48;;;;;;;;;;6246110;23;20004;-68
2021/07/19 08:31:31;;;;;;;3.15;1.60;;;;;;;;;;6246419;23;20377;-67
2021/07/19 08:33:58;;;;;;;8.50;1.80;;;;;;;;;;6245983;23;20012;-66
2021/07/19 08:36:24;;;;;;;9.00;1.70;;;;;;;;;;6244323;23;20050;-66
2021/07/19 08:38:51;;;;;;;4.72;1.73;;;;;;;;;;6246429;23;20008;-66
2021/07/19 08:41:18;;;;;;;4.05;1.50;;;;;;;;;;6244471;23;20007;-68
2021/07/19 08:43:45;;;;;;;3.95;1.50;;;;;;;;;;6246008;23;20034;-66
2021/07/19 08:46:11;;;;;;;3.42;1.60;;;;;;;;;;6244586;23;20007;-66
2021/07/19 08:48:38;;;;;;;8.73;1.90;;;;;;;;;;6246701;23;20004;-68
2021/07/19 08:51:05;;;;;;;4.25;1.50;;;;;;;;;;6244447;23;20034;-67
2021/07/19 08:53:36;;;;;;;3.83;1.60;;;;;;;;;;6246342;23;20000;-66
2021/07/19 08:56:03;;;;;;;4.32;1.70;;;;;;;;;;6246007;23;20501;-65
2021/07/19 08:58:29;;;;;;;5.07;1.70;;;;;;;;;;6246326;23;20007;-66
2021/07/19 09:00:58;;;;;;;5.72;2.08;;;;;;;;;;6246052;23;20004;-66
2021/07/19 09:03:24;;;;;;;3.58;1.60;;;;;;;;;;6244387;23;20008;-65
2021/07/19 09:05:51;;;;;;;2.95;1.70;;;;;;;;;;6244395;23;20036;-67
2021/07/19 09:08:17;;;;;;;3.83;1.77;;;;;;;;;;6244423;23;20001;-67
2021/07/19 09:10:43;;;;;;;8.55;2.10;;;;;;;;;;6244216;23;20080;-67
2021/07/19 09:13:20;;;;;;;5.07;2.15;;;;;;;;;;6246030;23;20001;-68
2021/07/19 09:15:47;;;;;;;3.08;1.50;;;;;;;;;;6244412;23;20038;-68
2021/07/19 09:18:20;;;;;;;4.38;2.30;;;;;;;;;;6244437;23;20000;-68
2021/07/19 09:20:47;;;;;;;4.93;2.10;;;;;;;;;;6244452;23;20047;-68
2021/07/19 09:23:13;;;;;;;5.65;2.20;;;;;;;;;;6246167;23;20057;-68
2021/07/19 09:25:40;;;;;;;6.72;2.33;;;;;;;;;;6244789;23;20004;-69
2021/07/19 09:28:09;;;;;;;4.53;2.10;;;;;;;;;;6246128;23;20422;-67
2021/07/19 09:30:37;;;;;;;8.80;2.30;;;;;;;;;;6247853;23;20039;-68
2021/07/19 09:33:03;;;;;;;8.45;2.47;;;;;;;;;;6246088;23;20008;-67
2021/07/19 09:35:30;;;;;;;6.72;2.20;;;;;;;;;;6247495;23;20047;-69
2021/07/19 09:38:01;;;;;;;6.35;1.98;;;;;;;;;;6247821;23;20023;-69
2021/07/19 09:40:28;;;;;;;5.63;2.15;;;;;;;;;;6221006;23;20034;-67
2021/07/19 09:42:55;;;;;;;5.43;2.40;;;;;;;;;;6247725;23;20004;-68
2021/07/19 09:45:29;;;;;;;5.90;2.25;;;;;;;;;;6247758;23;20004;-68
2021/07/19 09:47:59;;;;;;;4.43;2.25;;;;;;;;;;6220900;23;20334;-68
2021/07/19 09:50:26;;;;;;;4.45;2.55;;;;;;;;;;6247695;23;20432;-68
2021/07/19 09:52:53;;;;;;;7.40;2.72;;;;;;;;;;6247648;23;20086;-69
2021/07/19 09:55:23;;;;;;;6.45;2.53;;;;;;;;;;6220745;23;20035;-66
2021/07/19 09:57:53;;;;;;;4.30;2.42;;;;;;;;;;6221634;23;20004;-67
2021/07/19 10:00:21;;;;;;;5.07;2.97;;;;;;;;;;6220694;23;20335;-69
2021/07/19 10:02:47;;;;;;;4.40;3.00;;;;;;;;;;6248202;23;20003;-67
2021/07/19 10:05:23;;;;;;;10.13;3.85;;;;;;;;;;6247533;23;20082;-69
2021/07/19 10:07:49;;;;;;;16.00;4.45;;;;;;;;;;6220338;23;20046;-68
2021/07/19 10:10:16;;;;;;;6.85;4.03;;;;;;;;;;6247375;23;20007;-65
2021/07/19 10:12:42;;;;;;;7.07;3.85;;;;;;;;;;6220427;23;20028;-65
2021/07/19 10:15:11;;;;;;;10.38;3.67;;;;;;;;;;6220373;23;20015;-66
2021/07/19 10:17:37;;;;;;;9.30;4.53;;;;;;;;;;6220542;23;20011;-69
2021/07/19 10:20:04;;;;;;;6.82;4.43;;;;;;;;;;6220245;23;20083;-67
2021/07/19 10:22:31;;;;;;;8.07;4.10;;;;;;;;;;6221482;23;20066;-68
2021/07/19 10:25:02;;;;;;;8.80;4.22;;;;;;;;;;6220435;23;20000;-67
2021/07/19 10:27:29;;;;;;;;;;;;;;;;;;6248063;23;20004;-64
2021/07/19 10:29:56;;;;;;;6.65;4.75;;;;;;;;;;6247169;23;19899;-65
2021/07/19 10:32:23;;;;;;;11.13;5.00;;;;;;;;;;6220366;23;20024;-65
2021/07/19 10:34:50;;;;;;;10.27;5.15;;;;;;;;;;6247126;23;20043;-65
2021/07/19 10:37:39;;;;;;;10.20;4.82;;;;;;;;;;6247826;23;20001;-66
2021/07/19 10:40:09;;;;;;;7.30;4.95;;;;;;;;;;6177261;23;20015;-66
2021/07/19 10:42:35;;;;;;;12.88;5.80;;;;;;;;;;6220232;23;20311;-67
2021/07/19 10:45:12;;;;;;;9.90;6.25;;;;;;;;;;6220269;23;20004;-69
2021/07/19 10:47:47;;;;;;;8.85;5.28;;;;;;;;;;6220107;23;20004;-66
2021/07/19 10:50:19;;;;;;;9.90;5.85;;;;;;;;;;6247421;23;20074;-67
2021/07/19 10:52:46;;;;;;;10.32;6.20;;;;;;;;;;6247093;23;20019;-67
2021/07/19 10:55:25;;;;;;;11.07;7.28;;;;;;;;;;6220158;23;20019;-68
2021/07/19 10:57:59;;;;;;;17.13;6.55;;;;;;;;;;6220170;23;20031;-68
2021/07/19 11:00:26;;;;;;;11.80;6.55;;;;;;;;;;6219974;23;20086;-67
2021/07/19 11:03:03;;;;;;;12.43;7.13;;;;;;;;;;6220111;23;20004;-66
2021/07/19 11:05:49;;;;;;;14.60;7.57;;;;;;;;;;6246916;23;20015;-66
2021/07/19 11:08:28;;;;;;;20.17;7.88;;;;;;;;;;6219568;23;20070;-66
2021/07/19 11:10:58;;;;;;;13.10;6.60;;;;;;;;;;6246825;23;20337;-67
2021/07/19 11:13:29;;;;;;;12.88;7.03;;;;;;;;;;6247585;23;20007;-66
2021/07/19 11:15:56;;;;;;;16.47;7.93;;;;;;;;;;6220001;23;20019;-66
2021/07/19 11:18:25;;;;;;;16.45;6.13;;;;;;;;;;6219983;23;20382;-67
2021/07/19 11:20:51;;;;;;;18.95;7.30;;;;;;;;;;6246766;23;20000;-67
2021/07/19 11:23:28;;;;;;;14.73;7.28;;;;;;;;;;6246815;23;20046;-69
2021/07/19 11:25:54;;;;;;;13.15;6.57;;;;;;;;;;6219878;23;20012;-66
2021/07/19 11:28:22;;;;;;;12.75;7.38;;;;;;;;;;6246698;23;20009;-68
2021/07/19 11:31:06;;;;;;;15.77;6.93;;;;;;;;;;6246658;23;20000;-67
2021/07/19 11:33:42;;;;;;;14.77;7.55;;;;;;;;;;6247428;23;20406;-69
2021/07/19 11:36:29;;;;;;;12.68;6.95;;;;;;;;;;6246455;23;20341;-67
2021/07/19 11:38:56;;;;;;;12.23;6.80;;;;;;;;;;6219614;23;20079;-68
2021/07/19 11:41:24;;;;;;;14.15;7.18;;;;;;;;;;6246669;23;20007;-68
2021/07/19 11:43:52;;;;;;;15.95;7.90;;;;;;;;;;6246664;23;20382;-67
2021/07/19 11:46:24;;;;;;;18.67;7.88;;;;;;;;;;6246597;23;20001;-69
2021/07/19 11:48:51;;;;;;;13.45;7.47;;;;;;;;;;6219393;23;20035;-67
2021/07/19 11:51:21;;;;;;;15.82;6.80;;;;;;;;;;6219743;23;20000;-67
2021/07/19 11:53:47;;;;;;;11.15;6.30;;;;;;;;;;6218929;23;20060;-66
2021/07/19 11:56:13;;;;;;;14.25;7.22;;;;;;;;;;6246165;23;20044;-67
2021/07/19 11:58:42;;;;;;;13.88;6.90;;;;;;;;;;6246666;23;20333;-65
2021/07/19 12:01:09;;;;;;;13.23;6.32;;;;;;;;;;6246397;23;20000;-65
2021/07/19 12:03:35;;;;;;;15.90;6.65;;;;;;;;;;6246057;23;20000;-65
2021/07/19 12:06:02;;;;;;;13.32;6.55;;;;;;;;;;6245948;23;20004;-65
2021/07/19 12:08:29;;;;;;;13.85;7.07;;;;;;;;;;6219466;23;20027;-67
2021/07/19 12:11:08;;;;;;;14.00;6.78;;;;;;;;;;6246398;23;20011;-66
2021/07/19 12:13:38;;;;;;;12.32;5.78;;;;;;;;;;6246178;23;20287;-65
2021/07/19 12:16:06;;;;;;;14.18;6.95;;;;;;;;;;6219557;23;20019;-66
2021/07/19 12:18:33;;;;;;;10.95;5.93;;;;;;;;;;6246529;23;20011;-66
2021/07/19 12:21:07;;;;;;;13.65;6.53;;;;;;;;;;6246049;23;20000;-67
2021/07/19 12:23:40;;;;;;;14.35;6.63;;;;;;;;;;6219415;23;20004;-65
2021/07/19 12:26:07;;;;;;;12.30;5.57;;;;;;;;;;6246530;23;20004;-65
2021/07/19 12:28:33;;;;;;;11.48;6.32;;;;;;;;;;6246476;23;20004;-68
2021/07/19 12:31:28;;;;;;;14.38;6.10;;;;;;;;;;6246458;23;20380;-65
2021/07/19 12:33:54;;;;;;;13.20;5.30;;;;;;;;;;6214059;23;20019;-66
2021/07/19 12:36:21;;;;;;;14.18;5.18;;;;;;;;;;6245979;23;20019;-66
2021/07/19 12:38:48;;;;;;;11.18;5.95;;;;;;;;;;6246451;23;20050;-65
2021/07/19 12:41:15;;;;;;;9.90;5.05;;;;;;;;;;6219034;23;20008;-66
2021/07/19 12:43:42;;;;;;;11.35;5.32;;;;;;;;;;6245636;23;20086;-66
2021/07/19 12:46:10;;;;;;;8.63;4.10;;;;;;;;;;6218788;23;20383;-68
2021/07/19 12:48:36;;;;;;;7.95;4.20;;;;;;;;;;6218692;23;20054;-65
2021/07/19 12:51:04;;;;;;;11.43;4.68;;;;;;;;;;6244060;23;20000;-67
2021/07/19 12:53:34;;;;;;;8.23;4.70;;;;;;;;;;6217565;23;20430;-66
2021/07/19 12:56:16;;;;;;;9.73;5.00;;;;;;;;;;6218106;23;20012;-67
2021/07/19 12:59:15;;;;;;;9.97;4.70;;;;;;;;;;6218375;23;20008;-66
2021/07/19 13:01:45;;;;;;;13.43;5.00;;;;;;;;;;6139787;23;20279;-67
2021/07/19 13:04:12;;;;;;;16.08;4.80;;;;;;;;;;6220916;23;20004;-68
2021/07/19 13:06:39;;;;;;;9.88;4.70;;;;;;;;;;6220976;23;20008;-68
2021/07/19 13:09:10;;;;;;;10.60;4.65;;;;;;;;;;6248144;23;20363;-69
2021/07/19 13:11:37;;;;;;;10.90;4.90;;;;;;;;;;6220985;23;20011;-67
2021/07/19 13:14:16;;;;;;;10.85;5.35;;;;;;;;;;6221043;23;20011;-68
2021/07/19 13:16:44;;;;;;;11.20;5.00;;;;;;;;;;6248018;23;20031;-69
2021/07/19 13:19:10;;;;;;;11.95;5.70;;;;;;;;;;6247966;23;20110;-67
2021/07/19 13:21:37;;;;;;;9.15;5.45;;;;;;;;;;6221940;23;20004;-70
2021/07/19 13:24:14;;;;;;;17.58;5.90;;;;;;;;;;6220929;23;20003;-70
2021/07/19 13:26:40;;;;;;;11.32;5.75;;;;;;;;;;6221194;23;20008;-70
2021/07/19 13:29:08;;;;;;;12.45;5.43;;;;;;;;;;6247858;23;20059;-68
2021/07/19 13:31:34;;;;;;;11.95;5.30;;;;;;;;;;6247828;23;20341;-67
2021/07/19 13:34:00;;;;;;;10.98;5.72;;;;;;;;;;6247702;23;20005;-67
2021/07/19 13:36:33;;;;;;;9.00;4.57;;;;;;;;;;6247737;23;20024;-66
2021/07/19 13:38:59;;;;;;;8.43;4.70;;;;;;;;;;6221056;23;20000;-68
2021/07/19 13:41:26;;;;;;;10.57;5.10;;;;;;;;;;6247759;23;20440;-69
2021/07/19 13:44:11;;;;;;;12.15;4.70;;;;;;;;;;6248183;23;20000;-67
2021/07/19 13:46:37;;;;;;;7.93;4.35;;;;;;;;;;6221033;23;20028;-68
2021/07/19 13:49:04;;;;;;;10.82;4.95;;;;;;;;;;6220938;23;20004;-69
2021/07/19 13:51:30;;;;;;;11.93;4.60;;;;;;;;;;6248365;23;20417;-68
2021/07/19 13:53:56;;;;;;;12.13;4.40;;;;;;;;;;6221717;23;20057;-69
2021/07/19 13:56:23;;;;;;;11.60;4.95;;;;;;;;;;6220686;23;20456;-68
2021/07/19 13:58:49;;;;;;;13.00;4.25;;;;;;;;;;6248729;23;20318;-68
2021/07/19 14:01:15;;;;;;;9.18;4.30;;;;;;;;;;6248356;23;20000;-66
2021/07/19 14:03:41;;;;;;;14.85;3.90;;;;;;;;;;6220610;23;20492;-68
2021/07/19 14:06:11;;;;;;;11.32;4.43;;;;;;;;;;6247676;23;20000;-68
2021/07/19 14:08:37;;;;;;;11.10;4.32;;;;;;;;;;6247767;23;20059;-65
2021/07/19 14:11:03;;;;;;;11.85;4.13;;;;;;;;;;6247454;23;20004;-68
2021/07/19 14:13:29;;;;;;;9.63;4.07;;;;;;;;;;6220455;23;20012;-67
2021/07/19 14:15:55;;;;;;;20.35;4.47;;;;;;;;;;6220533;23;20016;-69
2021/07/19 14:18:23;;;;;;;10.73;4.25;;;;;;;;;;6247399;23;20418;-68
2021/07/19 14:20:49;;;;;;;10.48;4.15;;;;;;;;;;6247710;23;20031;-69
2021/07/19 14:23:15;;;;;;;11.63;3.80;;;;;;;;;;6247435;23;20003;-65
2021/07/19 14:25:42;;;;;;;9.05;3.83;;;;;;;;;;6247590;23;20063;-66
2021/07/19 14:28:08;;;;;;;10.63;3.92;;;;;;;;;;6247326;23;20003;-70
2021/07/19 14:30:34;;;;;;;9.93;4.07;;;;;;;;;;6247297;23;20012;-67
2021/07/19 14:33:01;;;;;;;7.90;4.32;;;;;;;;;;6220455;23;20004;-67
2021/07/19 14:35:27;;;;;;;12.00;4.43;;;;;;;;;;6230548;23;20353;-68
2021/07/19 14:37:53;;;;;;;11.48;4.15;;;;;;;;;;6247619;23;20307;-69
2021/07/19 14:40:20;;;;;;;10.27;4.15;;;;;;;;;;6247213;23;20011;-69
2021/07/19 14:42:47;;;;;;;8.50;4.28;;;;;;;;;;6247609;23;20000;-67
2021/07/19 14:45:14;;;;;;;9.35;4.47;;;;;;;;;;6245649;23;20008;-68